メインページ
METAR-TAF:

METAR-TAF

空港 :

Wiarton, オンタリオ州, カナダ

緯度: 44-45N, 経度: 081-06W, 海抜: 222m

現時点の気象観測

当レポートは20分前の05:00(UTC)に作成
の風 7kt
気温 4°C
湿度 93%
気圧 1018 hPa
視程: 16.1km
高度600ftの雲はほとんどない
高度10000ftの雲は散在している

METAR: CYVV 040500Z 08007KT 10SM FEW006 SCT100 04/03 A3005 RMK SF1AC2 SLP184

時間: 01:20 (05:20 UTC)

予報

当レポートは9時間40分前の19:40(UTC)に作成
予報は03日の 20時(UTC)から 03日の 23時(UTC)まで有効
北東の風 7kt
視程: 10km
高度5000ftの千切れ雲あり

TAF: CYVV 031940Z 0320/0323 04007KT P6SM BKN050 RMK NXT FCST WILL BE ISSUED AT 041045Z

4,000以上の空港の気象観測と天気予報(METAR報とTAF報)

利用可能な観測所は地図上に黄色い丸と赤い丸で示す。

丸の上にカーソルを重ねると観測所名を参照できる。

次にクリックすると気象観測と天気予報を参照できる。

マップの切り替え:黒色「×」印の緑ボタンをクリックして拡大、「-」印の緑ボタンをクリックして縮小、緑色の三角印をクリックして隣りの地図に切り替え


METAR-TAF: